sensor_id;sensor_type;location;lat;lon;timestamp;P1;durP1;ratioP1;P2;durP2;ratioP2
53879;SDS011;39791;53.184;5.486;2022-11-15T00:01:46;24.40;;;15.90;;
53879;SDS011;39791;53.184;5.486;2022-11-15T00:04:12;25.00;;;15.27;;
53879;SDS011;39791;53.184;5.486;2022-11-15T00:06:37;21.65;;;14.07;;
53879;SDS011;39791;53.184;5.486;2022-11-15T00:09:03;20.83;;;14.52;;
53879;SDS011;39791;53.184;5.486;2022-11-15T00:11:28;25.83;;;16.17;;
53879;SDS011;39791;53.184;5.486;2022-11-15T00:13:55;22.98;;;15.48;;
53879;SDS011;39791;53.184;5.486;2022-11-15T00:16:21;24.30;;;15.88;;
53879;SDS011;39791;53.184;5.486;2022-11-15T00:18:47;25.05;;;15.98;;
53879;SDS011;39791;53.184;5.486;2022-11-15T00:21:13;23.65;;;16.13;;
53879;SDS011;39791;53.184;5.486;2022-11-15T00:23:39;27.98;;;17.13;;
53879;SDS011;39791;53.184;5.486;2022-11-15T00:26:05;23.20;;;15.48;;
53879;SDS011;39791;53.184;5.486;2022-11-15T00:28:31;28.05;;;16.17;;
53879;SDS011;39791;53.184;5.486;2022-11-15T00:31:00;22.55;;;15.35;;
53879;SDS011;39791;53.184;5.486;2022-11-15T00:33:27;26.85;;;17.33;;
53879;SDS011;39791;53.184;5.486;2022-11-15T00:35:52;27.42;;;15.40;;
53879;SDS011;39791;53.184;5.486;2022-11-15T00:38:18;25.65;;;18.50;;
53879;SDS011;39791;53.184;5.486;2022-11-15T00:40:43;28.13;;;17.52;;
53879;SDS011;39791;53.184;5.486;2022-11-15T00:43:09;27.95;;;17.52;;
53879;SDS011;39791;53.184;5.486;2022-11-15T00:45:34;25.88;;;16.45;;
53879;SDS011;39791;53.184;5.486;2022-11-15T00:48:00;21.88;;;13.20;;
53879;SDS011;39791;53.184;5.486;2022-11-15T00:50:25;27.27;;;16.10;;
53879;SDS011;39791;53.184;5.486;2022-11-15T00:52:51;23.80;;;14.27;;
53879;SDS011;39791;53.184;5.486;2022-11-15T00:55:17;29.77;;;15.73;;
53879;SDS011;39791;53.184;5.486;2022-11-15T00:57:44;23.73;;;16.33;;
53879;SDS011;39791;53.184;5.486;2022-11-15T01:00:10;28.65;;;19.75;;
53879;SDS011;39791;53.184;5.486;2022-11-15T01:02:36;29.30;;;20.17;;
53879;SDS011;39791;53.184;5.486;2022-11-15T01:05:02;32.55;;;20.55;;
53879;SDS011;39791;53.184;5.486;2022-11-15T01:07:28;34.65;;;21.75;;
53879;SDS011;39791;53.184;5.486;2022-11-15T01:09:53;26.15;;;17.23;;
53879;SDS011;39791;53.184;5.486;2022-11-15T01:12:19;28.98;;;20.63;;
53879;SDS011;39791;53.184;5.486;2022-11-15T01:14:44;28.48;;;19.50;;
53879;SDS011;39791;53.184;5.486;2022-11-15T01:17:10;31.45;;;21.10;;
53879;SDS011;39791;53.184;5.486;2022-11-15T01:19:35;37.03;;;25.40;;
53879;SDS011;39791;53.184;5.486;2022-11-15T01:22:01;33.08;;;19.92;;
53879;SDS011;39791;53.184;5.486;2022-11-15T01:24:26;35.30;;;24.83;;
53879;SDS011;39791;53.184;5.486;2022-11-15T01:26:52;35.35;;;22.40;;
53879;SDS011;39791;53.184;5.486;2022-11-15T01:29:17;37.45;;;22.25;;
53879;SDS011;39791;53.184;5.486;2022-11-15T01:31:43;24.60;;;15.77;;
53879;SDS011;39791;53.184;5.486;2022-11-15T01:34:08;28.55;;;19.20;;
53879;SDS011;39791;53.184;5.486;2022-11-15T01:36:34;32.25;;;20.42;;
53879;SDS011;39791;53.184;5.486;2022-11-15T01:38:59;33.55;;;23.77;;
53879;SDS011;39791;53.184;5.486;2022-11-15T01:41:29;38.15;;;27.38;;
53879;SDS011;39791;53.184;5.486;2022-11-15T01:46:57;37.10;;;26.95;;
53879;SDS011;39791;53.184;5.486;2022-11-15T01:49:26;33.42;;;22.55;;
53879;SDS011;39791;53.184;5.486;2022-11-15T01:51:54;38.72;;;26.42;;
53879;SDS011;39791;53.184;5.486;2022-11-15T01:54:21;34.92;;;25.27;;
53879;SDS011;39791;53.184;5.486;2022-11-15T01:56:50;42.70;;;32.38;;
53879;SDS011;39791;53.184;5.486;2022-11-15T01:59:20;42.10;;;31.02;;
53879;SDS011;39791;53.184;5.486;2022-11-15T02:01:46;45.03;;;31.67;;
53879;SDS011;39791;53.184;5.486;2022-11-15T02:04:26;43.55;;;32.53;;
53879;SDS011;39791;53.184;5.486;2022-11-15T02:06:54;38.97;;;27.50;;
53879;SDS011;39791;53.184;5.486;2022-11-15T02:09:19;44.35;;;28.85;;
53879;SDS011;39791;53.184;5.486;2022-11-15T02:11:45;39.03;;;27.15;;
53879;SDS011;39791;53.184;5.486;2022-11-15T02:14:12;36.78;;;25.77;;
53879;SDS011;39791;53.184;5.486;2022-11-15T02:16:44;45.00;;;32.92;;
53879;SDS011;39791;53.184;5.486;2022-11-15T02:22:14;49.00;;;35.78;;
53879;SDS011;39791;53.184;5.486;2022-11-15T02:25:09;48.90;;;33.97;;
53879;SDS011;39791;53.184;5.486;2022-11-15T02:31:25;46.58;;;31.75;;
53879;SDS011;39791;53.184;5.486;2022-11-15T02:33:59;42.33;;;32.75;;
53879;SDS011;39791;53.184;5.486;2022-11-15T02:36:32;46.08;;;33.00;;
53879;SDS011;39791;53.184;5.486;2022-11-15T02:42:02;47.10;;;35.03;;
53879;SDS011;39791;53.184;5.486;2022-11-15T02:45:09;50.20;;;34.30;;
53879;SDS011;39791;53.184;5.486;2022-11-15T02:47:42;48.60;;;33.80;;
53879;SDS011;39791;53.184;5.486;2022-11-15T02:50:11;45.85;;;32.65;;
53879;SDS011;39791;53.184;5.486;2022-11-15T02:52:40;48.33;;;33.17;;
53879;SDS011;39791;53.184;5.486;2022-11-15T02:58:22;55.15;;;36.13;;
53879;SDS011;39791;53.184;5.486;2022-11-15T03:01:19;56.40;;;35.97;;
53879;SDS011;39791;53.184;5.486;2022-11-15T03:06:47;53.97;;;35.30;;
53879;SDS011;39791;53.184;5.486;2022-11-15T03:09:24;55.53;;;34.10;;
53879;SDS011;39791;53.184;5.486;2022-11-15T03:11:55;55.60;;;34.80;;
53879;SDS011;39791;53.184;5.486;2022-11-15T03:14:29;57.08;;;36.10;;
53879;SDS011;39791;53.184;5.486;2022-11-15T03:17:02;55.95;;;35.58;;
53879;SDS011;39791;53.184;5.486;2022-11-15T03:22:00;67.10;;;38.80;;
53879;SDS011;39791;53.184;5.486;2022-11-15T03:24:29;67.20;;;38.05;;
53879;SDS011;39791;53.184;5.486;2022-11-15T03:26:58;63.05;;;36.22;;
53879;SDS011;39791;53.184;5.486;2022-11-15T03:29:32;63.80;;;35.97;;
53879;SDS011;39791;53.184;5.486;2022-11-15T03:32:02;68.60;;;35.58;;
53879;SDS011;39791;53.184;5.486;2022-11-15T03:34:36;68.00;;;37.13;;
53879;SDS011;39791;53.184;5.486;2022-11-15T03:37:12;79.78;;;39.22;;
53879;SDS011;39791;53.184;5.486;2022-11-15T03:39:40;90.05;;;39.28;;
53879;SDS011;39791;53.184;5.486;2022-11-15T03:44:43;77.90;;;38.40;;
53879;SDS011;39791;53.184;5.486;2022-11-15T03:47:31;61.45;;;33.17;;
53879;SDS011;39791;53.184;5.486;2022-11-15T03:50:01;75.40;;;37.90;;
53879;SDS011;39791;53.184;5.486;2022-11-15T03:52:32;71.97;;;35.53;;
53879;SDS011;39791;53.184;5.486;2022-11-15T03:54:59;69.25;;;33.33;;
53879;SDS011;39791;53.184;5.486;2022-11-15T03:57:27;96.88;;;38.92;;
53879;SDS011;39791;53.184;5.486;2022-11-15T03:59:53;100.30;;;40.53;;
53879;SDS011;39791;53.184;5.486;2022-11-15T04:02:18;115.47;;;42.22;;
53879;SDS011;39791;53.184;5.486;2022-11-15T04:04:44;106.30;;;40.33;;
53879;SDS011;39791;53.184;5.486;2022-11-15T04:07:09;100.13;;;39.50;;
53879;SDS011;39791;53.184;5.486;2022-11-15T04:09:35;103.82;;;39.35;;
53879;SDS011;39791;53.184;5.486;2022-11-15T04:12:20;88.15;;;38.75;;
53879;SDS011;39791;53.184;5.486;2022-11-15T04:17:38;111.97;;;38.97;;
53879;SDS011;39791;53.184;5.486;2022-11-15T04:20:04;102.05;;;37.25;;
53879;SDS011;39791;53.184;5.486;2022-11-15T04:22:52;137.57;;;41.17;;
53879;SDS011;39791;53.184;5.486;2022-11-15T04:25:36;106.35;;;34.58;;
53879;SDS011;39791;53.184;5.486;2022-11-15T04:28:02;87.05;;;32.00;;
53879;SDS011;39791;53.184;5.486;2022-11-15T04:30:28;79.97;;;32.58;;
53879;SDS011;39791;53.184;5.486;2022-11-15T04:32:53;102.03;;;34.25;;
53879;SDS011;39791;53.184;5.486;2022-11-15T04:35:19;91.68;;;33.55;;
53879;SDS011;39791;53.184;5.486;2022-11-15T04:37:44;78.28;;;30.88;;
53879;SDS011;39791;53.184;5.486;2022-11-15T04:40:10;108.75;;;34.88;;
53879;SDS011;39791;53.184;5.486;2022-11-15T04:42:36;115.75;;;35.90;;
53879;SDS011;39791;53.184;5.486;2022-11-15T04:45:01;104.00;;;34.13;;
53879;SDS011;39791;53.184;5.486;2022-11-15T04:47:27;91.93;;;33.83;;
53879;SDS011;39791;53.184;5.486;2022-11-15T04:49:54;97.65;;;34.10;;
53879;SDS011;39791;53.184;5.486;2022-11-15T04:52:20;97.97;;;34.72;;
53879;SDS011;39791;53.184;5.486;2022-11-15T04:54:45;73.88;;;30.52;;
53879;SDS011;39791;53.184;5.486;2022-11-15T04:57:11;89.03;;;32.05;;
53879;SDS011;39791;53.184;5.486;2022-11-15T04:59:36;99.28;;;35.13;;
53879;SDS011;39791;53.184;5.486;2022-11-15T05:02:02;86.53;;;31.02;;
53879;SDS011;39791;53.184;5.486;2022-11-15T05:04:27;87.07;;;31.70;;
53879;SDS011;39791;53.184;5.486;2022-11-15T05:06:53;63.75;;;26.15;;
53879;SDS011;39791;53.184;5.486;2022-11-15T05:09:19;78.85;;;30.48;;
53879;SDS011;39791;53.184;5.486;2022-11-15T05:11:45;65.93;;;29.30;;
53879;SDS011;39791;53.184;5.486;2022-11-15T05:14:12;66.35;;;27.27;;
53879;SDS011;39791;53.184;5.486;2022-11-15T05:16:38;68.15;;;25.95;;
53879;SDS011;39791;53.184;5.486;2022-11-15T05:19:04;124.28;;;31.83;;
53879;SDS011;39791;53.184;5.486;2022-11-15T05:21:30;71.43;;;26.50;;
53879;SDS011;39791;53.184;5.486;2022-11-15T05:23:56;139.02;;;35.13;;
53879;SDS011;39791;53.184;5.486;2022-11-15T05:26:22;82.72;;;28.02;;
53879;SDS011;39791;53.184;5.486;2022-11-15T05:28:51;53.53;;;19.30;;
53879;SDS011;39791;53.184;5.486;2022-11-15T05:31:18;57.90;;;24.02;;
53879;SDS011;39791;53.184;5.486;2022-11-15T05:33:44;80.28;;;26.27;;
53879;SDS011;39791;53.184;5.486;2022-11-15T05:36:12;93.47;;;30.33;;
53879;SDS011;39791;53.184;5.486;2022-11-15T05:38:48;105.23;;;30.90;;
53879;SDS011;39791;53.184;5.486;2022-11-15T05:41:15;83.88;;;26.40;;
53879;SDS011;39791;53.184;5.486;2022-11-15T05:43:47;69.53;;;26.00;;
53879;SDS011;39791;53.184;5.486;2022-11-15T05:46:14;81.15;;;26.40;;
53879;SDS011;39791;53.184;5.486;2022-11-15T05:48:40;69.57;;;25.63;;
53879;SDS011;39791;53.184;5.486;2022-11-15T05:51:09;57.53;;;22.75;;
53879;SDS011;39791;53.184;5.486;2022-11-15T05:53:37;47.95;;;21.80;;
53879;SDS011;39791;53.184;5.486;2022-11-15T05:56:03;82.82;;;28.55;;
53879;SDS011;39791;53.184;5.486;2022-11-15T05:58:31;91.10;;;30.63;;
53879;SDS011;39791;53.184;5.486;2022-11-15T06:00:57;93.25;;;33.42;;
53879;SDS011;39791;53.184;5.486;2022-11-15T06:03:23;81.70;;;30.67;;
53879;SDS011;39791;53.184;5.486;2022-11-15T06:05:49;64.03;;;27.08;;
53879;SDS011;39791;53.184;5.486;2022-11-15T06:08:14;52.95;;;24.20;;
53879;SDS011;39791;53.184;5.486;2022-11-15T06:10:40;47.47;;;21.65;;
53879;SDS011;39791;53.184;5.486;2022-11-15T06:13:05;54.22;;;23.13;;
53879;SDS011;39791;53.184;5.486;2022-11-15T06:15:34;56.83;;;26.08;;
53879;SDS011;39791;53.184;5.486;2022-11-15T06:18:00;77.07;;;28.20;;
53879;SDS011;39791;53.184;5.486;2022-11-15T06:20:26;79.90;;;29.98;;
53879;SDS011;39791;53.184;5.486;2022-11-15T06:22:57;113.15;;;35.00;;
53879;SDS011;39791;53.184;5.486;2022-11-15T06:25:26;127.22;;;35.35;;
53879;SDS011;39791;53.184;5.486;2022-11-15T06:27:53;84.45;;;28.08;;
53879;SDS011;39791;53.184;5.486;2022-11-15T06:30:20;75.20;;;29.48;;
53879;SDS011;39791;53.184;5.486;2022-11-15T06:32:46;81.57;;;29.38;;
53879;SDS011;39791;53.184;5.486;2022-11-15T06:35:12;62.42;;;27.13;;
53879;SDS011;39791;53.184;5.486;2022-11-15T06:37:38;115.72;;;33.85;;
53879;SDS011;39791;53.184;5.486;2022-11-15T06:40:04;147.77;;;40.85;;
53879;SDS011;39791;53.184;5.486;2022-11-15T06:42:30;125.05;;;39.65;;
53879;SDS011;39791;53.184;5.486;2022-11-15T06:44:56;132.40;;;41.55;;
53879;SDS011;39791;53.184;5.486;2022-11-15T06:47:21;79.80;;;30.20;;
53879;SDS011;39791;53.184;5.486;2022-11-15T06:49:47;85.60;;;31.67;;
53879;SDS011;39791;53.184;5.486;2022-11-15T06:52:12;70.20;;;29.20;;
53879;SDS011;39791;53.184;5.486;2022-11-15T06:54:38;71.45;;;30.58;;
53879;SDS011;39791;53.184;5.486;2022-11-15T06:57:04;114.43;;;44.40;;
53879;SDS011;39791;53.184;5.486;2022-11-15T06:59:29;102.25;;;39.67;;
53879;SDS011;39791;53.184;5.486;2022-11-15T07:01:55;86.28;;;34.35;;
53879;SDS011;39791;53.184;5.486;2022-11-15T07:04:21;90.07;;;37.05;;
53879;SDS011;39791;53.184;5.486;2022-11-15T07:06:47;70.50;;;31.33;;
53879;SDS011;39791;53.184;5.486;2022-11-15T07:09:13;68.18;;;31.30;;
53879;SDS011;39791;53.184;5.486;2022-11-15T07:11:39;64.40;;;27.33;;
53879;SDS011;39791;53.184;5.486;2022-11-15T07:14:04;57.72;;;26.52;;
53879;SDS011;39791;53.184;5.486;2022-11-15T07:16:30;88.70;;;38.58;;
53879;SDS011;39791;53.184;5.486;2022-11-15T07:18:55;79.95;;;34.65;;
53879;SDS011;39791;53.184;5.486;2022-11-15T07:21:21;64.18;;;30.42;;
53879;SDS011;39791;53.184;5.486;2022-11-15T07:23:46;72.63;;;34.78;;
53879;SDS011;39791;53.184;5.486;2022-11-15T07:26:12;66.18;;;33.97;;
53879;SDS011;39791;53.184;5.486;2022-11-15T07:28:38;52.95;;;21.90;;
53879;SDS011;39791;53.184;5.486;2022-11-15T07:31:04;50.28;;;24.33;;
53879;SDS011;39791;53.184;5.486;2022-11-15T07:33:31;62.75;;;31.23;;
53879;SDS011;39791;53.184;5.486;2022-11-15T07:36:00;71.30;;;36.80;;
53879;SDS011;39791;53.184;5.486;2022-11-15T07:38:27;64.85;;;35.35;;
53879;SDS011;39791;53.184;5.486;2022-11-15T07:40:59;71.45;;;33.95;;
53879;SDS011;39791;53.184;5.486;2022-11-15T07:43:26;67.20;;;34.40;;
53879;SDS011;39791;53.184;5.486;2022-11-15T07:46:04;42.55;;;23.90;;
53879;SDS011;39791;53.184;5.486;2022-11-15T07:48:34;46.22;;;25.70;;
53879;SDS011;39791;53.184;5.486;2022-11-15T07:51:00;51.30;;;27.33;;
53879;SDS011;39791;53.184;5.486;2022-11-15T07:53:25;51.58;;;27.60;;
53879;SDS011;39791;53.184;5.486;2022-11-15T07:55:51;48.58;;;25.98;;
53879;SDS011;39791;53.184;5.486;2022-11-15T07:58:18;52.47;;;29.60;;
53879;SDS011;39791;53.184;5.486;2022-11-15T08:00:44;53.85;;;33.33;;
53879;SDS011;39791;53.184;5.486;2022-11-15T08:03:11;50.63;;;27.45;;
53879;SDS011;39791;53.184;5.486;2022-11-15T08:05:38;53.30;;;30.13;;
53879;SDS011;39791;53.184;5.486;2022-11-15T08:08:05;47.75;;;26.90;;
53879;SDS011;39791;53.184;5.486;2022-11-15T08:10:31;41.00;;;23.67;;
53879;SDS011;39791;53.184;5.486;2022-11-15T08:13:01;42.40;;;26.27;;
53879;SDS011;39791;53.184;5.486;2022-11-15T08:15:32;37.55;;;21.83;;
53879;SDS011;39791;53.184;5.486;2022-11-15T08:18:00;44.22;;;28.05;;
53879;SDS011;39791;53.184;5.486;2022-11-15T08:20:27;48.35;;;30.27;;
53879;SDS011;39791;53.184;5.486;2022-11-15T08:22:57;54.08;;;29.77;;
53879;SDS011;39791;53.184;5.486;2022-11-15T08:25:24;50.20;;;30.75;;
53879;SDS011;39791;53.184;5.486;2022-11-15T08:27:52;39.67;;;24.73;;
53879;SDS011;39791;53.184;5.486;2022-11-15T08:30:18;36.03;;;23.02;;
53879;SDS011;39791;53.184;5.486;2022-11-15T08:32:44;29.58;;;18.65;;
53879;SDS011;39791;53.184;5.486;2022-11-15T08:35:10;30.25;;;18.98;;
53879;SDS011;39791;53.184;5.486;2022-11-15T08:37:35;28.33;;;17.90;;
53879;SDS011;39791;53.184;5.486;2022-11-15T08:40:01;41.75;;;26.13;;
53879;SDS011;39791;53.184;5.486;2022-11-15T08:42:27;30.00;;;18.98;;
53879;SDS011;39791;53.184;5.486;2022-11-15T08:44:52;34.58;;;22.05;;
53879;SDS011;39791;53.184;5.486;2022-11-15T08:47:18;33.30;;;16.65;;
53879;SDS011;39791;53.184;5.486;2022-11-15T08:49:43;33.90;;;21.17;;
53879;SDS011;39791;53.184;5.486;2022-11-15T08:52:09;30.52;;;20.58;;
53879;SDS011;39791;53.184;5.486;2022-11-15T08:54:34;34.00;;;20.90;;
53879;SDS011;39791;53.184;5.486;2022-11-15T08:57:00;28.23;;;19.52;;
53879;SDS011;39791;53.184;5.486;2022-11-15T08:59:26;30.50;;;19.83;;
53879;SDS011;39791;53.184;5.486;2022-11-15T09:01:51;42.53;;;23.35;;
53879;SDS011;39791;53.184;5.486;2022-11-15T09:04:17;39.42;;;21.30;;
53879;SDS011;39791;53.184;5.486;2022-11-15T09:06:42;29.95;;;20.20;;
53879;SDS011;39791;53.184;5.486;2022-11-15T09:09:08;30.33;;;17.88;;
53879;SDS011;39791;53.184;5.486;2022-11-15T09:11:33;35.75;;;20.60;;
53879;SDS011;39791;53.184;5.486;2022-11-15T09:13:59;30.48;;;18.08;;
53879;SDS011;39791;53.184;5.486;2022-11-15T09:16:24;29.35;;;15.57;;
53879;SDS011;39791;53.184;5.486;2022-11-15T09:18:50;33.55;;;20.90;;
53879;SDS011;39791;53.184;5.486;2022-11-15T09:21:15;35.25;;;23.92;;
53879;SDS011;39791;53.184;5.486;2022-11-15T09:23:41;35.83;;;19.15;;
53879;SDS011;39791;53.184;5.486;2022-11-15T09:26:07;28.52;;;17.63;;
53879;SDS011;39791;53.184;5.486;2022-11-15T09:28:33;29.92;;;15.85;;
53879;SDS011;39791;53.184;5.486;2022-11-15T09:30:59;22.08;;;14.98;;
53879;SDS011;39791;53.184;5.486;2022-11-15T09:33:26;28.88;;;17.75;;
53879;SDS011;39791;53.184;5.486;2022-11-15T09:35:52;30.50;;;18.42;;
53879;SDS011;39791;53.184;5.486;2022-11-15T09:38:18;31.88;;;16.65;;
53879;SDS011;39791;53.184;5.486;2022-11-15T09:40:44;33.75;;;21.05;;
53879;SDS011;39791;53.184;5.486;2022-11-15T09:46:15;27.90;;;19.92;;
53879;SDS011;39791;53.184;5.486;2022-11-15T09:48:48;25.90;;;13.85;;
53879;SDS011;39791;53.184;5.486;2022-11-15T09:51:18;28.73;;;18.40;;
53879;SDS011;39791;53.184;5.486;2022-11-15T09:53:58;23.80;;;13.82;;
53879;SDS011;39791;53.184;5.486;2022-11-15T09:56:40;29.77;;;18.75;;
53879;SDS011;39791;53.184;5.486;2022-11-15T09:59:17;32.33;;;18.25;;
53879;SDS011;39791;53.184;5.486;2022-11-15T10:02:15;25.13;;;16.30;;
53879;SDS011;39791;53.184;5.486;2022-11-15T10:05:04;27.92;;;17.13;;
53879;SDS011;39791;53.184;5.486;2022-11-15T10:10:11;18.40;;;12.35;;
53879;SDS011;39791;53.184;5.486;2022-11-15T10:12:57;20.77;;;13.43;;
53879;SDS011;39791;53.184;5.486;2022-11-15T10:15:23;26.38;;;15.15;;
53879;SDS011;39791;53.184;5.486;2022-11-15T10:20:47;26.23;;;16.33;;
53879;SDS011;39791;53.184;5.486;2022-11-15T10:23:19;22.88;;;13.90;;
53879;SDS011;39791;53.184;5.486;2022-11-15T10:25:47;23.33;;;13.77;;
53879;SDS011;39791;53.184;5.486;2022-11-15T10:28:21;25.90;;;14.65;;
53879;SDS011;39791;53.184;5.486;2022-11-15T10:30:53;24.77;;;14.20;;
53879;SDS011;39791;53.184;5.486;2022-11-15T10:38:43;24.00;;;16.52;;
53879;SDS011;39791;53.184;5.486;2022-11-15T10:41:20;26.92;;;17.08;;
53879;SDS011;39791;53.184;5.486;2022-11-15T10:46:31;25.17;;;16.83;;
53879;SDS011;39791;53.184;5.486;2022-11-15T10:49:17;17.67;;;12.82;;
53879;SDS011;39791;53.184;5.486;2022-11-15T10:51:46;18.10;;;11.98;;
53879;SDS011;39791;53.184;5.486;2022-11-15T10:54:12;24.33;;;15.20;;
53879;SDS011;39791;53.184;5.486;2022-11-15T10:57:13;25.20;;;13.20;;
53879;SDS011;39791;53.184;5.486;2022-11-15T10:59:42;21.15;;;14.98;;
53879;SDS011;39791;53.184;5.486;2022-11-15T11:02:27;22.73;;;13.65;;
53879;SDS011;39791;53.184;5.486;2022-11-15T11:04:55;28.40;;;14.48;;
53879;SDS011;39791;53.184;5.486;2022-11-15T11:07:22;17.73;;;11.68;;
53879;SDS011;39791;53.184;5.486;2022-11-15T11:10:03;21.33;;;11.65;;
53879;SDS011;39791;53.184;5.486;2022-11-15T11:12:43;21.55;;;11.73;;
53879;SDS011;39791;53.184;5.486;2022-11-15T11:15:13;16.58;;;10.60;;
53879;SDS011;39791;53.184;5.486;2022-11-15T11:17:51;19.10;;;10.35;;
53879;SDS011;39791;53.184;5.486;2022-11-15T11:31:39;20.02;;;10.65;;
53879;SDS011;39791;53.184;5.486;2022-11-15T11:45:19;17.75;;;10.52;;
53879;SDS011;39791;53.184;5.486;2022-11-15T11:51:33;15.38;;;9.48;;
53879;SDS011;39791;53.184;5.486;2022-11-15T11:54:05;19.65;;;10.27;;
53879;SDS011;39791;53.184;5.486;2022-11-15T11:56:36;15.82;;;10.05;;
53879;SDS011;39791;53.184;5.486;2022-11-15T12:01:53;16.02;;;10.02;;
53879;SDS011;39791;53.184;5.486;2022-11-15T12:07:20;15.43;;;8.80;;
53879;SDS011;39791;53.184;5.486;2022-11-15T12:09:51;22.35;;;10.43;;
53879;SDS011;39791;53.184;5.486;2022-11-15T12:12:35;14.25;;;9.43;;
53879;SDS011;39791;53.184;5.486;2022-11-15T12:15:26;12.90;;;7.70;;
53879;SDS011;39791;53.184;5.486;2022-11-15T12:17:52;11.73;;;6.95;;
53879;SDS011;39791;53.184;5.486;2022-11-15T12:20:22;11.27;;;7.45;;
53879;SDS011;39791;53.184;5.486;2022-11-15T12:22:56;9.77;;;6.07;;
53879;SDS011;39791;53.184;5.486;2022-11-15T12:25:45;10.55;;;5.25;;
53879;SDS011;39791;53.184;5.486;2022-11-15T12:28:17;12.48;;;5.53;;
53879;SDS011;39791;53.184;5.486;2022-11-15T12:30:54;8.38;;;4.30;;
53879;SDS011;39791;53.184;5.486;2022-11-15T12:36:01;8.43;;;4.75;;
53879;SDS011;39791;53.184;5.486;2022-11-15T12:41:22;8.10;;;4.13;;
53879;SDS011;39791;53.184;5.486;2022-11-15T12:43:51;10.80;;;5.20;;
53879;SDS011;39791;53.184;5.486;2022-11-15T12:46:19;14.68;;;6.00;;
53879;SDS011;39791;53.184;5.486;2022-11-15T12:48:48;7.03;;;5.45;;
53879;SDS011;39791;53.184;5.486;2022-11-15T12:51:14;10.77;;;6.07;;
53879;SDS011;39791;53.184;5.486;2022-11-15T12:53:40;9.75;;;6.22;;
53879;SDS011;39791;53.184;5.486;2022-11-15T12:58:44;7.55;;;4.60;;
53879;SDS011;39791;53.184;5.486;2022-11-15T13:06:45;12.77;;;4.75;;
53879;SDS011;39791;53.184;5.486;2022-11-15T13:20:34;8.40;;;4.40;;
53879;SDS011;39791;53.184;5.486;2022-11-15T13:22:41;9.07;;;5.20;;
53879;SDS011;39791;53.184;5.486;2022-11-15T13:28:02;6.63;;;4.25;;
53879;SDS011;39791;53.184;5.486;2022-11-15T13:30:55;8.63;;;4.70;;
53879;SDS011;39791;53.184;5.486;2022-11-15T13:33:24;9.25;;;4.53;;
53879;SDS011;39791;53.184;5.486;2022-11-15T13:35:56;13.50;;;4.22;;
53879;SDS011;39791;53.184;5.486;2022-11-15T13:40:49;7.05;;;3.40;;
53879;SDS011;39791;53.184;5.486;2022-11-15T13:48:41;5.78;;;2.75;;
53879;SDS011;39791;53.184;5.486;2022-11-15T13:53:39;7.88;;;3.13;;
53879;SDS011;39791;53.184;5.486;2022-11-15T13:56:07;6.63;;;3.67;;
53879;SDS011;39791;53.184;5.486;2022-11-15T13:58:33;7.55;;;3.58;;
53879;SDS011;39791;53.184;5.486;2022-11-15T14:01:03;4.05;;;2.95;;
53879;SDS011;39791;53.184;5.486;2022-11-15T14:03:31;4.78;;;3.22;;
53879;SDS011;39791;53.184;5.486;2022-11-15T14:06:10;4.38;;;2.80;;
53879;SDS011;39791;53.184;5.486;2022-11-15T14:11:25;4.68;;;2.83;;
53879;SDS011;39791;53.184;5.486;2022-11-15T14:16:44;4.90;;;2.30;;
53879;SDS011;39791;53.184;5.486;2022-11-15T14:22:16;2.78;;;2.35;;
53879;SDS011;39791;53.184;5.486;2022-11-15T14:24:46;7.45;;;2.85;;
53879;SDS011;39791;53.184;5.486;2022-11-15T14:27:30;6.45;;;3.00;;
53879;SDS011;39791;53.184;5.486;2022-11-15T14:29:56;3.47;;;2.22;;
53879;SDS011;39791;53.184;5.486;2022-11-15T14:32:23;3.60;;;2.40;;
53879;SDS011;39791;53.184;5.486;2022-11-15T14:35:00;4.20;;;2.47;;
53879;SDS011;39791;53.184;5.486;2022-11-15T14:37:31;4.40;;;2.63;;
53879;SDS011;39791;53.184;5.486;2022-11-15T14:39:59;5.68;;;2.85;;
53879;SDS011;39791;53.184;5.486;2022-11-15T14:42:26;4.93;;;2.70;;
53879;SDS011;39791;53.184;5.486;2022-11-15T14:44:53;5.78;;;2.90;;
53879;SDS011;39791;53.184;5.486;2022-11-15T14:47:18;5.60;;;3.22;;
53879;SDS011;39791;53.184;5.486;2022-11-15T14:49:44;7.78;;;3.42;;
53879;SDS011;39791;53.184;5.486;2022-11-15T14:52:19;5.15;;;3.00;;
53879;SDS011;39791;53.184;5.486;2022-11-15T14:54:53;3.25;;;2.38;;
53879;SDS011;39791;53.184;5.486;2022-11-15T14:57:19;5.35;;;2.38;;
53879;SDS011;39791;53.184;5.486;2022-11-15T14:59:45;3.20;;;2.10;;
53879;SDS011;39791;53.184;5.486;2022-11-15T15:02:18;2.90;;;1.98;;
53879;SDS011;39791;53.184;5.486;2022-11-15T15:04:48;4.15;;;1.83;;
53879;SDS011;39791;53.184;5.486;2022-11-15T15:07:14;5.28;;;2.38;;
53879;SDS011;39791;53.184;5.486;2022-11-15T15:09:40;2.05;;;1.50;;
53879;SDS011;39791;53.184;5.486;2022-11-15T15:12:19;4.18;;;1.90;;
53879;SDS011;39791;53.184;5.486;2022-11-15T15:14:47;5.50;;;2.17;;
53879;SDS011;39791;53.184;5.486;2022-11-15T15:17:14;1.98;;;1.65;;
53879;SDS011;39791;53.184;5.486;2022-11-15T15:19:40;6.13;;;2.58;;
53879;SDS011;39791;53.184;5.486;2022-11-15T15:22:09;9.40;;;2.30;;
53879;SDS011;39791;53.184;5.486;2022-11-15T15:24:41;3.95;;;2.08;;
53879;SDS011;39791;53.184;5.486;2022-11-15T15:27:07;5.10;;;2.38;;
53879;SDS011;39791;53.184;5.486;2022-11-15T15:29:33;2.58;;;1.83;;
53879;SDS011;39791;53.184;5.486;2022-11-15T15:31:59;5.53;;;2.13;;
53879;SDS011;39791;53.184;5.486;2022-11-15T15:34:24;2.50;;;1.65;;
53879;SDS011;39791;53.184;5.486;2022-11-15T15:37:03;4.22;;;2.00;;
53879;SDS011;39791;53.184;5.486;2022-11-15T15:39:44;7.35;;;2.70;;
53879;SDS011;39791;53.184;5.486;2022-11-15T15:42:10;2.70;;;1.70;;
53879;SDS011;39791;53.184;5.486;2022-11-15T15:44:35;4.22;;;1.80;;
53879;SDS011;39791;53.184;5.486;2022-11-15T15:47:01;4.53;;;1.80;;
53879;SDS011;39791;53.184;5.486;2022-11-15T15:49:26;3.30;;;1.73;;
53879;SDS011;39791;53.184;5.486;2022-11-15T15:51:52;7.45;;;1.80;;
53879;SDS011;39791;53.184;5.486;2022-11-15T15:54:17;4.57;;;2.00;;
53879;SDS011;39791;53.184;5.486;2022-11-15T15:56:43;9.80;;;1.90;;
53879;SDS011;39791;53.184;5.486;2022-11-15T15:59:08;3.05;;;2.00;;
53879;SDS011;39791;53.184;5.486;2022-11-15T16:01:34;3.25;;;1.80;;
53879;SDS011;39791;53.184;5.486;2022-11-15T16:03:59;3.30;;;2.20;;
53879;SDS011;39791;53.184;5.486;2022-11-15T16:06:32;6.10;;;1.98;;
53879;SDS011;39791;53.184;5.486;2022-11-15T16:09:00;4.68;;;1.85;;
53879;SDS011;39791;53.184;5.486;2022-11-15T16:11:27;5.53;;;1.77;;
53879;SDS011;39791;53.184;5.486;2022-11-15T16:13:53;2.58;;;1.75;;
53879;SDS011;39791;53.184;5.486;2022-11-15T16:16:18;3.03;;;1.90;;
53879;SDS011;39791;53.184;5.486;2022-11-15T16:18:46;3.45;;;1.80;;
53879;SDS011;39791;53.184;5.486;2022-11-15T16:21:11;3.53;;;1.80;;
53879;SDS011;39791;53.184;5.486;2022-11-15T16:23:37;4.45;;;2.10;;
53879;SDS011;39791;53.184;5.486;2022-11-15T16:26:06;4.10;;;2.20;;
53879;SDS011;39791;53.184;5.486;2022-11-15T16:28:47;6.25;;;2.60;;
53879;SDS011;39791;53.184;5.486;2022-11-15T16:31:13;5.30;;;2.47;;
53879;SDS011;39791;53.184;5.486;2022-11-15T16:33:39;3.42;;;2.30;;
53879;SDS011;39791;53.184;5.486;2022-11-15T16:36:05;2.25;;;1.65;;
53879;SDS011;39791;53.184;5.486;2022-11-15T16:38:42;4.70;;;2.40;;